sensor_id;sensor_type;location;lat;lon;timestamp;P1;durP1;ratioP1;P2;durP2;ratioP2
76966;SDS011;65904;52.278;20.972;2023-05-25T00:02:16;29.05;;;15.10;;
76966;SDS011;65904;52.278;20.972;2023-05-25T00:05:02;26.73;;;14.77;;
76966;SDS011;65904;52.278;20.972;2023-05-25T00:07:49;30.83;;;16.65;;
76966;SDS011;65904;52.278;20.972;2023-05-25T00:10:35;30.67;;;17.75;;
76966;SDS011;65904;52.278;20.972;2023-05-25T00:13:21;23.48;;;13.73;;
76966;SDS011;65904;52.278;20.972;2023-05-25T00:16:08;26.90;;;16.00;;
76966;SDS011;65904;52.278;20.972;2023-05-25T00:18:55;24.63;;;15.05;;
76966;SDS011;65904;52.278;20.972;2023-05-25T00:21:42;28.48;;;15.55;;
76966;SDS011;65904;52.278;20.972;2023-05-25T00:24:31;28.02;;;15.63;;
76966;SDS011;65904;52.278;20.972;2023-05-25T00:27:17;32.75;;;16.70;;
76966;SDS011;65904;52.278;20.972;2023-05-25T00:30:03;30.98;;;17.08;;
76966;SDS011;65904;52.278;20.972;2023-05-25T00:32:51;27.73;;;16.17;;
76966;SDS011;65904;52.278;20.972;2023-05-25T00:35:40;27.60;;;15.43;;
76966;SDS011;65904;52.278;20.972;2023-05-25T00:38:28;29.08;;;16.23;;
76966;SDS011;65904;52.278;20.972;2023-05-25T00:41:15;32.80;;;16.85;;
76966;SDS011;65904;52.278;20.972;2023-05-25T00:44:02;32.30;;;16.77;;
76966;SDS011;65904;52.278;20.972;2023-05-25T00:46:49;32.40;;;17.33;;
76966;SDS011;65904;52.278;20.972;2023-05-25T00:49:37;40.55;;;18.02;;
76966;SDS011;65904;52.278;20.972;2023-05-25T00:52:24;35.03;;;18.73;;
76966;SDS011;65904;52.278;20.972;2023-05-25T00:55:11;36.97;;;18.50;;
76966;SDS011;65904;52.278;20.972;2023-05-25T00:58:03;32.92;;;18.20;;
76966;SDS011;65904;52.278;20.972;2023-05-25T01:00:50;36.15;;;18.02;;
76966;SDS011;65904;52.278;20.972;2023-05-25T01:03:40;35.50;;;18.73;;
76966;SDS011;65904;52.278;20.972;2023-05-25T01:06:29;38.40;;;19.45;;
76966;SDS011;65904;52.278;20.972;2023-05-25T01:09:18;37.40;;;18.15;;
76966;SDS011;65904;52.278;20.972;2023-05-25T01:12:07;41.45;;;19.77;;
76966;SDS011;65904;52.278;20.972;2023-05-25T01:14:56;35.88;;;18.55;;
76966;SDS011;65904;52.278;20.972;2023-05-25T01:17:45;43.83;;;20.63;;
76966;SDS011;65904;52.278;20.972;2023-05-25T01:20:36;44.30;;;21.00;;
76966;SDS011;65904;52.278;20.972;2023-05-25T01:23:25;39.40;;;19.38;;
76966;SDS011;65904;52.278;20.972;2023-05-25T01:26:17;39.17;;;20.05;;
76966;SDS011;65904;52.278;20.972;2023-05-25T01:29:08;42.05;;;18.88;;
76966;SDS011;65904;52.278;20.972;2023-05-25T01:31:55;46.53;;;21.70;;
76966;SDS011;65904;52.278;20.972;2023-05-25T01:34:43;51.22;;;22.52;;
76966;SDS011;65904;52.278;20.972;2023-05-25T01:37:30;52.90;;;21.58;;
76966;SDS011;65904;52.278;20.972;2023-05-25T01:40:19;45.58;;;21.17;;
76966;SDS011;65904;52.278;20.972;2023-05-25T01:43:05;45.85;;;20.92;;
76966;SDS011;65904;52.278;20.972;2023-05-25T01:45:51;46.90;;;21.15;;
76966;SDS011;65904;52.278;20.972;2023-05-25T01:48:42;46.42;;;21.15;;
76966;SDS011;65904;52.278;20.972;2023-05-25T01:51:38;54.58;;;24.35;;
76966;SDS011;65904;52.278;20.972;2023-05-25T01:54:34;50.88;;;22.52;;
76966;SDS011;65904;52.278;20.972;2023-05-25T01:57:24;57.17;;;23.73;;
76966;SDS011;65904;52.278;20.972;2023-05-25T02:00:13;54.72;;;24.00;;
76966;SDS011;65904;52.278;20.972;2023-05-25T02:03:01;51.78;;;23.15;;
76966;SDS011;65904;52.278;20.972;2023-05-25T02:05:47;49.75;;;21.38;;
76966;SDS011;65904;52.278;20.972;2023-05-25T02:08:34;49.53;;;21.23;;
76966;SDS011;65904;52.278;20.972;2023-05-25T02:11:20;49.97;;;22.67;;
76966;SDS011;65904;52.278;20.972;2023-05-25T02:14:08;52.15;;;23.73;;
76966;SDS011;65904;52.278;20.972;2023-05-25T02:16:55;52.50;;;22.92;;
76966;SDS011;65904;52.278;20.972;2023-05-25T02:19:45;49.45;;;24.13;;
76966;SDS011;65904;52.278;20.972;2023-05-25T02:22:37;51.10;;;23.10;;
76966;SDS011;65904;52.278;20.972;2023-05-25T02:25:25;46.95;;;22.38;;
76966;SDS011;65904;52.278;20.972;2023-05-25T02:28:13;45.53;;;21.77;;
76966;SDS011;65904;52.278;20.972;2023-05-25T02:31:01;45.63;;;21.95;;
76966;SDS011;65904;52.278;20.972;2023-05-25T02:33:47;47.17;;;22.13;;
76966;SDS011;65904;52.278;20.972;2023-05-25T02:36:33;46.90;;;22.17;;
76966;SDS011;65904;52.278;20.972;2023-05-25T02:39:22;45.60;;;22.35;;
76966;SDS011;65904;52.278;20.972;2023-05-25T02:42:11;40.58;;;20.63;;
76966;SDS011;65904;52.278;20.972;2023-05-25T02:44:57;38.40;;;20.55;;
76966;SDS011;65904;52.278;20.972;2023-05-25T02:47:45;41.80;;;20.30;;
76966;SDS011;65904;52.278;20.972;2023-05-25T02:50:31;39.53;;;19.25;;
76966;SDS011;65904;52.278;20.972;2023-05-25T02:53:22;44.03;;;21.75;;
76966;SDS011;65904;52.278;20.972;2023-05-25T02:56:08;43.97;;;21.60;;
76966;SDS011;65904;52.278;20.972;2023-05-25T02:58:55;42.22;;;21.60;;
76966;SDS011;65904;52.278;20.972;2023-05-25T03:01:48;47.10;;;21.55;;
76966;SDS011;65904;52.278;20.972;2023-05-25T03:04:36;44.55;;;21.33;;
76966;SDS011;65904;52.278;20.972;2023-05-25T03:07:22;45.97;;;22.42;;
76966;SDS011;65904;52.278;20.972;2023-05-25T03:10:12;39.05;;;20.88;;
76966;SDS011;65904;52.278;20.972;2023-05-25T03:12:59;39.75;;;20.02;;
76966;SDS011;65904;52.278;20.972;2023-05-25T03:15:45;38.40;;;19.70;;
76966;SDS011;65904;52.278;20.972;2023-05-25T03:18:32;41.85;;;22.00;;
76966;SDS011;65904;52.278;20.972;2023-05-25T03:21:19;41.55;;;20.67;;
76966;SDS011;65904;52.278;20.972;2023-05-25T03:24:07;46.10;;;23.05;;
76966;SDS011;65904;52.278;20.972;2023-05-25T03:26:53;44.67;;;21.48;;
76966;SDS011;65904;52.278;20.972;2023-05-25T03:29:39;39.33;;;20.80;;
76966;SDS011;65904;52.278;20.972;2023-05-25T03:35:13;43.42;;;20.60;;
76966;SDS011;65904;52.278;20.972;2023-05-25T03:38:01;41.00;;;21.60;;
76966;SDS011;65904;52.278;20.972;2023-05-25T03:40:47;41.15;;;19.85;;
76966;SDS011;65904;52.278;20.972;2023-05-25T03:43:34;42.58;;;20.50;;
76966;SDS011;65904;52.278;20.972;2023-05-25T03:46:22;43.15;;;21.80;;
76966;SDS011;65904;52.278;20.972;2023-05-25T03:49:08;37.63;;;20.02;;
76966;SDS011;65904;52.278;20.972;2023-05-25T03:51:57;39.70;;;20.30;;
76966;SDS011;65904;52.278;20.972;2023-05-25T03:54:46;39.47;;;19.40;;
76966;SDS011;65904;52.278;20.972;2023-05-25T03:57:32;55.58;;;26.38;;
76966;SDS011;65904;52.278;20.972;2023-05-25T04:00:18;41.22;;;21.35;;
76966;SDS011;65904;52.278;20.972;2023-05-25T04:03:06;42.30;;;20.02;;
76966;SDS011;65904;52.278;20.972;2023-05-25T04:05:54;41.47;;;21.52;;
76966;SDS011;65904;52.278;20.972;2023-05-25T04:08:42;69.03;;;36.90;;
76966;SDS011;65904;52.278;20.972;2023-05-25T04:11:30;46.78;;;23.13;;
76966;SDS011;65904;52.278;20.972;2023-05-25T04:14:16;40.50;;;21.98;;
76966;SDS011;65904;52.278;20.972;2023-05-25T04:17:04;43.13;;;22.02;;
76966;SDS011;65904;52.278;20.972;2023-05-25T04:19:50;35.67;;;19.73;;
76966;SDS011;65904;52.278;20.972;2023-05-25T04:22:37;38.80;;;20.75;;
76966;SDS011;65904;52.278;20.972;2023-05-25T04:25:23;40.78;;;20.35;;
76966;SDS011;65904;52.278;20.972;2023-05-25T04:28:12;38.60;;;20.80;;
76966;SDS011;65904;52.278;20.972;2023-05-25T04:31:18;42.38;;;21.50;;
76966;SDS011;65904;52.278;20.972;2023-05-25T04:34:18;38.35;;;20.63;;
76966;SDS011;65904;52.278;20.972;2023-05-25T04:37:17;39.60;;;20.70;;
76966;SDS011;65904;52.278;20.972;2023-05-25T04:40:05;35.60;;;20.20;;
76966;SDS011;65904;52.278;20.972;2023-05-25T04:42:54;43.50;;;20.52;;
76966;SDS011;65904;52.278;20.972;2023-05-25T04:45:42;38.88;;;20.50;;
76966;SDS011;65904;52.278;20.972;2023-05-25T04:48:29;34.85;;;19.50;;
76966;SDS011;65904;52.278;20.972;2023-05-25T04:51:17;41.20;;;18.70;;
76966;SDS011;65904;52.278;20.972;2023-05-25T04:54:04;42.55;;;20.73;;
76966;SDS011;65904;52.278;20.972;2023-05-25T04:56:51;42.97;;;23.65;;
76966;SDS011;65904;52.278;20.972;2023-05-25T04:59:38;38.53;;;20.00;;
76966;SDS011;65904;52.278;20.972;2023-05-25T05:02:25;43.90;;;20.55;;
76966;SDS011;65904;52.278;20.972;2023-05-25T05:05:11;38.33;;;19.73;;
76966;SDS011;65904;52.278;20.972;2023-05-25T05:07:57;36.15;;;20.70;;
76966;SDS011;65904;52.278;20.972;2023-05-25T05:10:44;30.95;;;16.63;;
76966;SDS011;65904;52.278;20.972;2023-05-25T05:13:30;34.30;;;19.95;;
76966;SDS011;65904;52.278;20.972;2023-05-25T05:16:16;37.30;;;19.10;;
76966;SDS011;65904;52.278;20.972;2023-05-25T05:19:04;33.28;;;19.10;;
76966;SDS011;65904;52.278;20.972;2023-05-25T05:21:50;35.53;;;19.30;;
76966;SDS011;65904;52.278;20.972;2023-05-25T05:27:23;33.97;;;17.85;;
76966;SDS011;65904;52.278;20.972;2023-05-25T05:30:15;34.25;;;17.75;;
76966;SDS011;65904;52.278;20.972;2023-05-25T05:33:03;33.05;;;18.25;;
76966;SDS011;65904;52.278;20.972;2023-05-25T05:35:57;38.95;;;19.02;;
76966;SDS011;65904;52.278;20.972;2023-05-25T05:38:44;32.95;;;18.00;;
76966;SDS011;65904;52.278;20.972;2023-05-25T05:41:31;36.10;;;19.98;;
76966;SDS011;65904;52.278;20.972;2023-05-25T05:44:17;35.28;;;19.48;;
76966;SDS011;65904;52.278;20.972;2023-05-25T05:47:05;34.72;;;17.48;;
76966;SDS011;65904;52.278;20.972;2023-05-25T05:49:51;32.95;;;18.20;;
76966;SDS011;65904;52.278;20.972;2023-05-25T05:52:39;28.45;;;15.90;;
76966;SDS011;65904;52.278;20.972;2023-05-25T05:55:24;39.17;;;19.45;;
76966;SDS011;65904;52.278;20.972;2023-05-25T05:58:11;33.42;;;18.05;;
76966;SDS011;65904;52.278;20.972;2023-05-25T06:00:57;38.60;;;19.63;;
76966;SDS011;65904;52.278;20.972;2023-05-25T06:03:45;37.50;;;18.65;;
76966;SDS011;65904;52.278;20.972;2023-05-25T06:06:32;34.70;;;18.75;;
76966;SDS011;65904;52.278;20.972;2023-05-25T06:09:20;33.10;;;17.92;;
76966;SDS011;65904;52.278;20.972;2023-05-25T06:12:07;30.90;;;17.77;;
76966;SDS011;65904;52.278;20.972;2023-05-25T06:17:41;34.45;;;18.83;;
76966;SDS011;65904;52.278;20.972;2023-05-25T06:20:28;37.38;;;18.98;;
76966;SDS011;65904;52.278;20.972;2023-05-25T06:23:15;31.42;;;18.55;;
76966;SDS011;65904;52.278;20.972;2023-05-25T06:26:03;34.00;;;17.05;;
76966;SDS011;65904;52.278;20.972;2023-05-25T06:28:50;34.20;;;17.05;;
76966;SDS011;65904;52.278;20.972;2023-05-25T06:31:36;31.38;;;16.10;;
76966;SDS011;65904;52.278;20.972;2023-05-25T06:34:22;31.80;;;18.35;;
76966;SDS011;65904;52.278;20.972;2023-05-25T06:37:09;32.30;;;16.65;;
76966;SDS011;65904;52.278;20.972;2023-05-25T06:39:56;30.92;;;17.15;;
76966;SDS011;65904;52.278;20.972;2023-05-25T06:42:43;28.25;;;16.48;;
76966;SDS011;65904;52.278;20.972;2023-05-25T06:48:35;27.83;;;15.95;;
76966;SDS011;65904;52.278;20.972;2023-05-25T06:51:21;31.95;;;18.23;;
76966;SDS011;65904;52.278;20.972;2023-05-25T06:54:10;29.65;;;17.77;;
76966;SDS011;65904;52.278;20.972;2023-05-25T06:56:58;31.35;;;19.63;;
76966;SDS011;65904;52.278;20.972;2023-05-25T06:59:46;32.67;;;17.48;;
76966;SDS011;65904;52.278;20.972;2023-05-25T07:02:32;30.20;;;17.88;;
76966;SDS011;65904;52.278;20.972;2023-05-25T07:05:19;34.72;;;18.98;;
76966;SDS011;65904;52.278;20.972;2023-05-25T07:08:05;36.05;;;19.55;;
76966;SDS011;65904;52.278;20.972;2023-05-25T07:10:51;34.40;;;18.20;;
76966;SDS011;65904;52.278;20.972;2023-05-25T07:13:40;32.65;;;18.33;;
76966;SDS011;65904;52.278;20.972;2023-05-25T07:16:28;33.28;;;17.90;;
76966;SDS011;65904;52.278;20.972;2023-05-25T07:19:15;35.97;;;20.00;;
76966;SDS011;65904;52.278;20.972;2023-05-25T07:22:01;32.70;;;18.17;;
76966;SDS011;65904;52.278;20.972;2023-05-25T07:24:47;33.42;;;18.05;;
76966;SDS011;65904;52.278;20.972;2023-05-25T07:27:33;36.47;;;19.48;;
76966;SDS011;65904;52.278;20.972;2023-05-25T07:30:19;29.35;;;17.23;;
76966;SDS011;65904;52.278;20.972;2023-05-25T07:33:07;30.02;;;18.45;;
76966;SDS011;65904;52.278;20.972;2023-05-25T07:35:53;31.73;;;17.08;;
76966;SDS011;65904;52.278;20.972;2023-05-25T07:38:39;30.88;;;18.05;;
76966;SDS011;65904;52.278;20.972;2023-05-25T07:41:25;31.23;;;16.50;;
76966;SDS011;65904;52.278;20.972;2023-05-25T07:44:12;29.48;;;16.75;;
76966;SDS011;65904;52.278;20.972;2023-05-25T07:46:58;30.92;;;18.10;;
76966;SDS011;65904;52.278;20.972;2023-05-25T07:49:46;28.63;;;16.45;;
76966;SDS011;65904;52.278;20.972;2023-05-25T07:52:32;29.60;;;17.67;;
76966;SDS011;65904;52.278;20.972;2023-05-25T07:55:18;27.77;;;16.42;;
76966;SDS011;65904;52.278;20.972;2023-05-25T07:58:04;30.33;;;17.25;;
76966;SDS011;65904;52.278;20.972;2023-05-25T08:00:52;28.35;;;16.85;;
76966;SDS011;65904;52.278;20.972;2023-05-25T08:03:38;29.00;;;16.55;;
76966;SDS011;65904;52.278;20.972;2023-05-25T08:06:26;25.70;;;16.13;;
76966;SDS011;65904;52.278;20.972;2023-05-25T08:09:12;29.25;;;18.17;;
76966;SDS011;65904;52.278;20.972;2023-05-25T08:11:58;27.10;;;16.77;;
76966;SDS011;65904;52.278;20.972;2023-05-25T08:14:44;23.00;;;16.48;;
76966;SDS011;65904;52.278;20.972;2023-05-25T08:17:31;25.52;;;17.05;;
76966;SDS011;65904;52.278;20.972;2023-05-25T08:20:17;26.02;;;15.60;;
76966;SDS011;65904;52.278;20.972;2023-05-25T08:23:05;23.80;;;15.63;;
76966;SDS011;65904;52.278;20.972;2023-05-25T08:25:51;26.35;;;16.15;;
76966;SDS011;65904;52.278;20.972;2023-05-25T08:28:38;24.23;;;15.93;;
76966;SDS011;65904;52.278;20.972;2023-05-25T08:31:24;24.05;;;16.17;;
76966;SDS011;65904;52.278;20.972;2023-05-25T08:34:10;23.52;;;15.05;;
76966;SDS011;65904;52.278;20.972;2023-05-25T08:36:56;22.35;;;14.75;;
76966;SDS011;65904;52.278;20.972;2023-05-25T08:39:44;22.33;;;15.75;;
76966;SDS011;65904;52.278;20.972;2023-05-25T08:42:30;22.73;;;15.70;;
76966;SDS011;65904;52.278;20.972;2023-05-25T08:45:16;23.27;;;15.73;;
76966;SDS011;65904;52.278;20.972;2023-05-25T08:48:02;23.15;;;15.13;;
76966;SDS011;65904;52.278;20.972;2023-05-25T08:50:53;24.15;;;15.75;;
76966;SDS011;65904;52.278;20.972;2023-05-25T08:53:40;21.02;;;14.32;;
76966;SDS011;65904;52.278;20.972;2023-05-25T08:56:30;22.90;;;14.75;;
76966;SDS011;65904;52.278;20.972;2023-05-25T08:59:24;22.08;;;14.65;;
76966;SDS011;65904;52.278;20.972;2023-05-25T09:02:20;21.58;;;14.15;;
76966;SDS011;65904;52.278;20.972;2023-05-25T09:05:10;22.27;;;14.23;;
76966;SDS011;65904;52.278;20.972;2023-05-25T09:07:58;20.38;;;13.70;;
76966;SDS011;65904;52.278;20.972;2023-05-25T09:10:44;19.92;;;14.50;;
76966;SDS011;65904;52.278;20.972;2023-05-25T09:13:34;21.23;;;14.75;;
76966;SDS011;65904;52.278;20.972;2023-05-25T09:16:21;24.40;;;14.75;;
76966;SDS011;65904;52.278;20.972;2023-05-25T09:19:09;22.55;;;15.70;;
76966;SDS011;65904;52.278;20.972;2023-05-25T09:21:56;24.15;;;15.80;;
76966;SDS011;65904;52.278;20.972;2023-05-25T09:24:42;22.25;;;14.85;;
76966;SDS011;65904;52.278;20.972;2023-05-25T09:27:29;22.73;;;16.10;;
76966;SDS011;65904;52.278;20.972;2023-05-25T09:30:21;19.65;;;14.40;;
76966;SDS011;65904;52.278;20.972;2023-05-25T09:33:10;20.98;;;15.73;;
76966;SDS011;65904;52.278;20.972;2023-05-25T09:35:57;20.63;;;15.27;;
76966;SDS011;65904;52.278;20.972;2023-05-25T09:38:44;23.15;;;15.50;;
76966;SDS011;65904;52.278;20.972;2023-05-25T09:41:30;18.85;;;14.40;;
76966;SDS011;65904;52.278;20.972;2023-05-25T09:44:18;18.75;;;14.13;;
76966;SDS011;65904;52.278;20.972;2023-05-25T09:47:06;18.65;;;13.85;;
76966;SDS011;65904;52.278;20.972;2023-05-25T09:49:52;18.00;;;13.57;;
76966;SDS011;65904;52.278;20.972;2023-05-25T09:52:38;17.55;;;13.65;;
76966;SDS011;65904;52.278;20.972;2023-05-25T09:55:26;18.92;;;13.27;;
76966;SDS011;65904;52.278;20.972;2023-05-25T09:58:13;18.42;;;14.70;;
76966;SDS011;65904;52.278;20.972;2023-05-25T10:01:00;18.80;;;14.55;;
76966;SDS011;65904;52.278;20.972;2023-05-25T10:03:49;18.40;;;14.13;;
76966;SDS011;65904;52.278;20.972;2023-05-25T10:06:37;17.73;;;14.13;;
76966;SDS011;65904;52.278;20.972;2023-05-25T10:09:24;20.85;;;14.27;;
76966;SDS011;65904;52.278;20.972;2023-05-25T10:12:13;19.27;;;15.30;;
76966;SDS011;65904;52.278;20.972;2023-05-25T10:15:03;21.45;;;14.38;;
76966;SDS011;65904;52.278;20.972;2023-05-25T10:17:52;20.45;;;14.85;;
76966;SDS011;65904;52.278;20.972;2023-05-25T10:20:41;20.70;;;15.80;;
76966;SDS011;65904;52.278;20.972;2023-05-25T10:23:29;20.08;;;14.40;;
76966;SDS011;65904;52.278;20.972;2023-05-25T10:26:25;22.63;;;16.38;;
76966;SDS011;65904;52.278;20.972;2023-05-25T10:29:13;18.70;;;13.52;;
76966;SDS011;65904;52.278;20.972;2023-05-25T10:32:01;17.25;;;13.63;;
76966;SDS011;65904;52.278;20.972;2023-05-25T10:34:49;19.38;;;13.88;;
76966;SDS011;65904;52.278;20.972;2023-05-25T10:37:38;18.67;;;13.75;;
76966;SDS011;65904;52.278;20.972;2023-05-25T10:40:24;19.55;;;14.15;;
76966;SDS011;65904;52.278;20.972;2023-05-25T10:43:11;16.10;;;13.00;;
76966;SDS011;65904;52.278;20.972;2023-05-25T10:45:58;16.25;;;12.57;;
76966;SDS011;65904;52.278;20.972;2023-05-25T10:48:46;20.70;;;13.60;;
76966;SDS011;65904;52.278;20.972;2023-05-25T10:51:37;20.35;;;13.27;;
76966;SDS011;65904;52.278;20.972;2023-05-25T10:54:29;19.05;;;13.10;;
76966;SDS011;65904;52.278;20.972;2023-05-25T10:57:20;18.02;;;13.77;;
76966;SDS011;65904;52.278;20.972;2023-05-25T11:00:07;16.45;;;13.13;;
76966;SDS011;65904;52.278;20.972;2023-05-25T11:02:57;15.27;;;12.20;;
76966;SDS011;65904;52.278;20.972;2023-05-25T11:05:43;17.65;;;13.07;;
76966;SDS011;65904;52.278;20.972;2023-05-25T11:08:46;14.30;;;11.07;;
76966;SDS011;65904;52.278;20.972;2023-05-25T11:17:57;16.98;;;11.73;;
76966;SDS011;65904;52.278;20.972;2023-05-25T11:20:45;16.55;;;12.45;;
76966;SDS011;65904;52.278;20.972;2023-05-25T11:23:32;16.85;;;12.27;;
76966;SDS011;65904;52.278;20.972;2023-05-25T11:26:18;17.70;;;12.55;;
76966;SDS011;65904;52.278;20.972;2023-05-25T11:29:13;16.05;;;12.27;;
76966;SDS011;65904;52.278;20.972;2023-05-25T11:31:59;13.73;;;10.90;;
76966;SDS011;65904;52.278;20.972;2023-05-25T11:34:46;15.05;;;11.30;;
76966;SDS011;65904;52.278;20.972;2023-05-25T11:40:21;14.25;;;11.13;;
76966;SDS011;65904;52.278;20.972;2023-05-25T11:43:07;13.48;;;10.55;;
76966;SDS011;65904;52.278;20.972;2023-05-25T11:45:58;13.98;;;10.40;;
76966;SDS011;65904;52.278;20.972;2023-05-25T11:48:48;15.45;;;10.57;;
76966;SDS011;65904;52.278;20.972;2023-05-25T11:51:36;15.30;;;10.45;;
76966;SDS011;65904;52.278;20.972;2023-05-25T11:54:23;13.45;;;10.30;;
76966;SDS011;65904;52.278;20.972;2023-05-25T11:57:13;13.13;;;10.60;;
76966;SDS011;65904;52.278;20.972;2023-05-25T11:59:59;14.38;;;10.80;;
76966;SDS011;65904;52.278;20.972;2023-05-25T12:02:53;11.80;;;10.02;;
76966;SDS011;65904;52.278;20.972;2023-05-25T12:05:39;10.98;;;9.63;;
76966;SDS011;65904;52.278;20.972;2023-05-25T12:14:04;9.30;;;8.43;;
76966;SDS011;65904;52.278;20.972;2023-05-25T12:16:51;11.32;;;9.50;;
76966;SDS011;65904;52.278;20.972;2023-05-25T12:19:39;11.10;;;9.85;;
76966;SDS011;65904;52.278;20.972;2023-05-25T12:22:25;11.57;;;9.18;;
76966;SDS011;65904;52.278;20.972;2023-05-25T12:25:12;10.38;;;9.27;;
76966;SDS011;65904;52.278;20.972;2023-05-25T12:28:09;10.23;;;9.23;;
76966;SDS011;65904;52.278;20.972;2023-05-25T12:30:55;11.20;;;10.00;;
76966;SDS011;65904;52.278;20.972;2023-05-25T12:33:41;11.27;;;9.80;;
76966;SDS011;65904;52.278;20.972;2023-05-25T12:36:43;10.18;;;9.23;;
76966;SDS011;65904;52.278;20.972;2023-05-25T12:39:31;9.85;;;8.95;;
76966;SDS011;65904;52.278;20.972;2023-05-25T12:42:22;8.90;;;8.07;;
76966;SDS011;65904;52.278;20.972;2023-05-25T12:45:10;10.23;;;9.23;;
76966;SDS011;65904;52.278;20.972;2023-05-25T12:47:57;10.63;;;9.63;;
76966;SDS011;65904;52.278;20.972;2023-05-25T12:50:55;10.93;;;9.68;;
76966;SDS011;65904;52.278;20.972;2023-05-25T12:53:47;10.35;;;9.43;;
76966;SDS011;65904;52.278;20.972;2023-05-25T12:56:47;9.95;;;8.90;;
76966;SDS011;65904;52.278;20.972;2023-05-25T12:59:38;9.80;;;8.80;;
76966;SDS011;65904;52.278;20.972;2023-05-25T13:02:25;9.00;;;7.45;;
76966;SDS011;65904;52.278;20.972;2023-05-25T13:05:19;8.55;;;7.65;;
76966;SDS011;65904;52.278;20.972;2023-05-25T13:08:05;9.38;;;8.40;;
76966;SDS011;65904;52.278;20.972;2023-05-25T13:10:54;8.13;;;7.32;;
76966;SDS011;65904;52.278;20.972;2023-05-25T13:13:40;7.95;;;7.15;;
76966;SDS011;65904;52.278;20.972;2023-05-25T13:16:29;9.43;;;8.30;;
76966;SDS011;65904;52.278;20.972;2023-05-25T13:19:16;12.57;;;8.13;;
76966;SDS011;65904;52.278;20.972;2023-05-25T13:22:04;9.52;;;8.13;;
76966;SDS011;65904;52.278;20.972;2023-05-25T13:24:50;7.90;;;7.20;;
76966;SDS011;65904;52.278;20.972;2023-05-25T13:27:42;9.18;;;8.18;;
76966;SDS011;65904;52.278;20.972;2023-05-25T13:30:29;8.20;;;7.55;;
76966;SDS011;65904;52.278;20.972;2023-05-25T13:33:15;8.30;;;7.50;;
76966;SDS011;65904;52.278;20.972;2023-05-25T13:36:02;9.38;;;8.23;;
76966;SDS011;65904;52.278;20.972;2023-05-25T13:38:52;8.73;;;7.82;;
76966;SDS011;65904;52.278;20.972;2023-05-25T13:41:38;8.77;;;7.90;;
76966;SDS011;65904;52.278;20.972;2023-05-25T13:44:26;8.25;;;7.35;;
76966;SDS011;65904;52.278;20.972;2023-05-25T13:47:13;8.90;;;8.10;;
76966;SDS011;65904;52.278;20.972;2023-05-25T13:49:59;9.65;;;7.65;;
76966;SDS011;65904;52.278;20.972;2023-05-25T13:52:45;8.23;;;7.30;;
76966;SDS011;65904;52.278;20.972;2023-05-25T13:55:32;8.20;;;7.40;;
76966;SDS011;65904;52.278;20.972;2023-05-25T13:58:18;8.82;;;7.95;;
76966;SDS011;65904;52.278;20.972;2023-05-25T14:01:06;9.50;;;7.78;;
76966;SDS011;65904;52.278;20.972;2023-05-25T14:03:52;9.10;;;8.15;;
76966;SDS011;65904;52.278;20.972;2023-05-25T14:06:39;9.02;;;8.02;;
76966;SDS011;65904;52.278;20.972;2023-05-25T14:09:28;9.07;;;8.18;;
76966;SDS011;65904;52.278;20.972;2023-05-25T14:12:14;9.95;;;9.05;;
76966;SDS011;65904;52.278;20.972;2023-05-25T14:15:01;11.70;;;9.18;;
76966;SDS011;65904;52.278;20.972;2023-05-25T14:17:48;10.35;;;9.30;;
76966;SDS011;65904;52.278;20.972;2023-05-25T14:20:34;9.45;;;8.55;;
76966;SDS011;65904;52.278;20.972;2023-05-25T14:23:23;10.35;;;9.10;;
76966;SDS011;65904;52.278;20.972;2023-05-25T14:26:09;10.50;;;9.20;;
76966;SDS011;65904;52.278;20.972;2023-05-25T14:28:56;14.13;;;9.80;;
76966;SDS011;65904;52.278;20.972;2023-05-25T14:31:42;11.13;;;9.73;;
76966;SDS011;65904;52.278;20.972;2023-05-25T14:34:30;9.93;;;8.60;;
76966;SDS011;65904;52.278;20.972;2023-05-25T14:37:17;12.10;;;9.65;;
76966;SDS011;65904;52.278;20.972;2023-05-25T14:40:03;9.25;;;8.25;;
76966;SDS011;65904;52.278;20.972;2023-05-25T14:42:50;9.70;;;8.55;;
76966;SDS011;65904;52.278;20.972;2023-05-25T14:45:38;13.75;;;8.13;;
76966;SDS011;65904;52.278;20.972;2023-05-25T14:51:12;10.18;;;9.07;;
76966;SDS011;65904;52.278;20.972;2023-05-25T14:53:58;10.85;;;8.68;;
76966;SDS011;65904;52.278;20.972;2023-05-25T14:56:46;10.75;;;8.38;;
76966;SDS011;65904;52.278;20.972;2023-05-25T15:02:19;11.15;;;8.50;;
76966;SDS011;65904;52.278;20.972;2023-05-25T15:05:05;10.43;;;7.93;;
76966;SDS011;65904;52.278;20.972;2023-05-25T15:07:53;9.15;;;7.57;;
76966;SDS011;65904;52.278;20.972;2023-05-25T15:10:40;11.98;;;8.40;;
76966;SDS011;65904;52.278;20.972;2023-05-25T15:13:25;11.07;;;7.90;;
76966;SDS011;65904;52.278;20.972;2023-05-25T15:16:12;10.85;;;8.07;;
76966;SDS011;65904;52.278;20.972;2023-05-25T15:18:59;8.13;;;7.13;;
76966;SDS011;65904;52.278;20.972;2023-05-25T15:21:46;9.07;;;6.93;;
76966;SDS011;65904;52.278;20.972;2023-05-25T15:24:33;12.88;;;10.10;;
76966;SDS011;65904;52.278;20.972;2023-05-25T15:27:20;9.57;;;8.13;;
76966;SDS011;65904;52.278;20.972;2023-05-25T15:30:06;9.40;;;8.20;;
76966;SDS011;65904;52.278;20.972;2023-05-25T15:32:53;9.15;;;8.25;;
76966;SDS011;65904;52.278;20.972;2023-05-25T15:38:25;9.52;;;7.80;;
76966;SDS011;65904;52.278;20.972;2023-05-25T15:41:13;14.82;;;7.22;;
76966;SDS011;65904;52.278;20.972;2023-05-25T15:44:00;8.90;;;7.63;;
76966;SDS011;65904;52.278;20.972;2023-05-25T15:46:51;107.00;;;63.95;;
76966;SDS011;65904;52.278;20.972;2023-05-25T15:49:37;15.10;;;13.13;;
76966;SDS011;65904;52.278;20.972;2023-05-25T16:06:28;8.75;;;7.00;;
76966;SDS011;65904;52.278;20.972;2023-05-25T16:09:14;8.23;;;7.05;;
76966;SDS011;65904;52.278;20.972;2023-05-25T16:16:38;8.40;;;7.60;;
76966;SDS011;65904;52.278;20.972;2023-05-25T16:19:24;8.60;;;7.28;;
76966;SDS011;65904;52.278;20.972;2023-05-25T16:31:55;8.95;;;7.43;;
76966;SDS011;65904;52.278;20.972;2023-05-25T16:34:41;8.38;;;7.55;;
76966;SDS011;65904;52.278;20.972;2023-05-25T17:00:30;8.13;;;7.25;;
76966;SDS011;65904;52.278;20.972;2023-05-25T17:03:17;8.88;;;7.95;;
76966;SDS011;65904;52.278;20.972;2023-05-25T17:06:03;9.68;;;8.52;;
76966;SDS011;65904;52.278;20.972;2023-05-25T17:08:49;9.85;;;8.52;;
76966;SDS011;65904;52.278;20.972;2023-05-25T17:16:29;68.00;;;39.03;;
76966;SDS011;65904;52.278;20.972;2023-05-25T17:19:15;37.15;;;24.60;;
76966;SDS011;65904;52.278;20.972;2023-05-25T17:26:28;10.25;;;9.00;;
76966;SDS011;65904;52.278;20.972;2023-05-25T17:29:13;14.95;;;9.52;;
76966;SDS011;65904;52.278;20.972;2023-05-25T17:45:53;10.88;;;8.52;;
76966;SDS011;65904;52.278;20.972;2023-05-25T17:48:39;9.07;;;8.02;;
76966;SDS011;65904;52.278;20.972;2023-05-25T17:56:03;9.05;;;8.15;;
76966;SDS011;65904;52.278;20.972;2023-05-25T18:03:24;9.95;;;7.35;;
76966;SDS011;65904;52.278;20.972;2023-05-25T18:06:10;9.88;;;8.15;;
76966;SDS011;65904;52.278;20.972;2023-05-25T18:08:56;51.00;;;39.20;;
76966;SDS011;65904;52.278;20.972;2023-05-25T18:11:43;10.40;;;8.43;;